Terminal Aerodrome Forecast
Issued by NWS Upton, NY

Home | Current Version | Previous Version | Text Only | Print | Product List | Glossary On
Versions: 1 2 3 4 5 6 7 8 9 10 11 12 13 14 15 16 17 18 19 20 21 22 23 24 25 26 27 28 29 30 31
546
FTUS41 KOKX 231942 AAA
TAFISP
TAF AMD
KISP 231942Z 2320/2418 32013G20KT P6SM SKC
     FM232100 30008KT P6SM SKC
     FM232300 VRB04KT P6SM FEW250
     FM241200 20008KT P6SM BKN120
     FM241400 20013KT P6SM OVC080 PROB30 2416/2418 6SM -RA BKN050=

USA.gov is the U.S. government's official web portal to all federal, state and local government web resources and services.